Time;durP1;ratioP1;P1;durP2;ratioP2;P2;SDS_P1;SDS_P2;PMS_P1;PMS_P2;Temp;Humidity;BMP_temperature;BMP_pressure;BME280_temperature;BME280_humidity;BME280_pressure;Samples;Min_cycle;Max_cycle;Signal;HPM_P1;HPM_P2
2021/05/05 00:00:34;;;;;;;15.73;4.03;;;8.00;99.90;;;;;;5083772;28;20208;-78
2021/05/05 00:03:01;;;;;;;11.47;3.20;;;8.00;99.90;;;;;;5085227;28;20208;-79
2021/05/05 00:05:27;;;;;;;19.03;3.60;;;8.00;99.90;;;;;;5084436;28;20502;-78
2021/05/05 00:07:54;;;;;;;16.00;3.50;;;8.10;99.90;;;;;;5072019;28;20307;-79
2021/05/05 00:10:20;;;;;;;13.57;4.33;;;8.10;99.90;;;;;;5065276;28;20272;-78
2021/05/05 00:12:47;;;;;;;13.87;3.23;;;8.10;99.90;;;;;;5065002;28;20255;-78
2021/05/05 00:15:16;;;;;;;15.00;3.80;;;8.00;99.90;;;;;;5064541;28;20221;-78
2021/05/05 00:17:43;;;;;;;12.60;3.07;;;7.90;99.90;;;;;;5065124;28;20220;-77
2021/05/05 00:20:11;;;;;;;15.40;3.33;;;7.80;99.90;;;;;;5064876;28;20197;-78
2021/05/05 00:22:37;;;;;;;18.23;3.87;;;7.80;99.90;;;;;;5064056;28;20299;-78
2021/05/05 00:25:07;;;;;;;22.33;4.27;;;7.80;99.90;;;;;;5065271;28;20197;-78
2021/05/05 00:27:34;;;;;;;13.87;3.20;;;7.80;99.90;;;;;;5064390;28;20205;-78
2021/05/05 00:30:00;;;;;;;18.37;3.20;;;7.80;99.90;;;;;;5064592;28;20238;-78
2021/05/05 00:32:27;;;;;;;20.50;4.10;;;7.80;99.90;;;;;;5064594;28;20201;-78
2021/05/05 00:34:53;;;;;;;16.13;3.17;;;7.80;99.90;;;;;;5064787;28;20229;-78
2021/05/05 00:37:20;;;;;;;13.17;2.83;;;7.90;99.90;;;;;;5066967;28;20209;-78
2021/05/05 00:39:46;;;;;;;10.63;2.97;;;7.90;99.90;;;;;;5067795;28;20711;-79
2021/05/05 00:42:13;;;;;;;18.63;3.30;;;7.90;99.90;;;;;;5065400;28;20256;-77
2021/05/05 00:44:40;;;;;;;22.50;4.67;;;8.00;99.90;;;;;;5066322;28;20201;-77
2021/05/05 00:47:08;;;;;;;14.23;3.27;;;8.00;99.90;;;;;;5065689;28;20255;-77
2021/05/05 00:49:34;;;;;;;17.53;3.43;;;8.00;99.90;;;;;;5064136;28;20213;-76
2021/05/05 00:52:00;;;;;;;16.03;3.47;;;8.00;99.90;;;;;;5064122;28;20811;-77
2021/05/05 00:54:27;;;;;;;14.83;3.73;;;7.90;99.90;;;;;;5064154;28;20232;-80
2021/05/05 00:56:53;;;;;;;13.80;3.00;;;7.90;99.90;;;;;;5063405;28;20320;-80
2021/05/05 00:59:22;;;;;;;16.57;3.87;;;7.90;99.90;;;;;;5064435;28;20216;-77
2021/05/05 01:01:49;;;;;;;15.60;3.60;;;8.00;99.90;;;;;;5063612;28;20200;-77
2021/05/05 01:04:15;;;;;;;13.80;3.53;;;7.90;99.90;;;;;;5063425;28;20418;-76
2021/05/05 01:06:42;;;;;;;31.93;5.50;;;7.90;99.90;;;;;;5063417;28;20219;-77
2021/05/05 01:09:08;;;;;;;18.83;3.97;;;8.00;99.90;;;;;;5063273;28;20197;-76
2021/05/05 01:11:34;;;;;;;18.97;4.17;;;8.00;99.90;;;;;;5063862;28;20216;-77
2021/05/05 01:14:00;;;;;;;21.53;4.03;;;8.00;99.90;;;;;;5063651;28;20229;-77
2021/05/05 01:16:28;;;;;;;18.60;3.87;;;8.00;99.90;;;;;;5063582;28;20205;-77
2021/05/05 01:18:54;;;;;;;12.23;4.03;;;8.00;99.90;;;;;;5063175;28;20212;-77
2021/05/05 01:21:21;;;;;;;9.53;2.47;;;8.00;99.90;;;;;;5063733;28;20205;-77
2021/05/05 01:23:47;;;;;;;12.73;2.13;;;8.00;99.90;;;;;;5063315;28;20198;-78
2021/05/05 01:26:14;;;;;;;9.23;2.67;;;7.90;99.90;;;;;;5063478;28;20212;-77
2021/05/05 01:28:42;;;;;;;10.90;2.57;;;7.80;99.90;;;;;;5063622;28;20197;-77
2021/05/05 01:31:11;;;;;;;11.47;3.23;;;7.70;99.90;;;;;;5062812;28;20205;-78
2021/05/05 01:33:38;;;;;;;13.43;3.60;;;7.70;99.90;;;;;;5063197;28;20221;-77
2021/05/05 01:36:05;;;;;;;19.83;3.13;;;7.60;99.90;;;;;;5064007;28;20263;-77
2021/05/05 01:38:33;;;;;;;16.20;3.67;;;7.70;99.90;;;;;;5062965;28;20201;-77
2021/05/05 01:40:59;;;;;;;21.33;4.70;;;7.70;99.90;;;;;;5061587;28;20221;-78
2021/05/05 01:43:26;;;;;;;27.67;5.93;;;7.70;99.90;;;;;;5063119;28;20205;-77
2021/05/05 01:45:52;;;;;;;21.27;5.00;;;7.70;99.90;;;;;;5062982;28;20906;-77
2021/05/05 01:48:20;;;;;;;22.53;4.67;;;7.80;99.90;;;;;;5063359;28;20208;-78
2021/05/05 01:50:46;;;;;;;16.97;3.90;;;7.80;99.90;;;;;;5063693;28;20548;-77
2021/05/05 01:53:15;;;;;;;19.87;3.80;;;7.90;99.90;;;;;;5062865;28;20212;-75
2021/05/05 01:55:42;;;;;;;19.00;4.50;;;7.90;99.90;;;;;;5062459;28;20222;-77
2021/05/05 01:58:09;;;;;;;14.90;3.97;;;7.90;99.90;;;;;;5063285;28;20220;-79
2021/05/05 02:00:35;;;;;;;23.03;4.83;;;7.90;99.90;;;;;;5062845;28;20197;-78
2021/05/05 02:03:01;;;;;;;21.07;4.70;;;7.90;99.90;;;;;;5063294;28;20205;-80
2021/05/05 02:05:28;;;;;;;16.67;4.03;;;7.90;99.90;;;;;;5063244;28;20189;-78
2021/05/05 02:07:54;;;;;;;14.67;3.37;;;7.90;99.90;;;;;;5062399;28;20204;-77
2021/05/05 02:10:21;;;;;;;18.97;4.67;;;7.90;99.90;;;;;;5063029;28;20229;-79
2021/05/05 02:12:49;;;;;;;18.13;3.43;;;7.90;99.90;;;;;;5063032;28;20215;-77
2021/05/05 02:15:18;;;;;;;14.80;3.73;;;7.90;99.90;;;;;;5062672;28;20404;-77
2021/05/05 02:17:45;;;;;;;14.40;3.30;;;7.90;99.90;;;;;;5063123;28;20201;-77
2021/05/05 02:20:13;;;;;;;16.57;3.53;;;7.90;99.90;;;;;;5061620;28;20208;-78
2021/05/05 02:22:40;;;;;;;19.80;4.73;;;8.00;99.90;;;;;;5062740;28;20580;-79
2021/05/05 02:25:08;;;;;;;15.60;4.23;;;7.90;99.90;;;;;;5062807;28;20197;-77
2021/05/05 02:27:36;;;;;;;15.93;3.50;;;7.90;99.90;;;;;;5062399;28;20237;-76
2021/05/05 02:30:03;;;;;;;14.30;3.63;;;7.80;99.90;;;;;;5062821;28;20514;-77
2021/05/05 02:32:30;;;;;;;13.27;3.33;;;7.90;99.90;;;;;;5062848;28;20630;-78
2021/05/05 02:34:56;;;;;;;15.30;4.27;;;7.80;99.90;;;;;;5062381;28;20221;-76
2021/05/05 02:37:23;;;;;;;18.03;4.37;;;7.80;99.90;;;;;;5062749;28;20278;-76
2021/05/05 02:39:50;;;;;;;16.03;3.90;;;7.80;99.90;;;;;;5062632;28;20197;-77
2021/05/05 02:42:19;;;;;;;14.60;4.10;;;7.90;99.90;;;;;;5062757;28;20600;-77
2021/05/05 02:44:49;;;;;;;21.03;4.77;;;7.80;99.90;;;;;;5062954;28;20201;-78
2021/05/05 02:47:16;;;;;;;21.43;3.77;;;7.80;99.90;;;;;;5078871;28;20236;-77
2021/05/05 02:49:43;;;;;;;18.73;3.30;;;7.90;99.90;;;;;;5077351;28;20256;-78
2021/05/05 02:52:09;;;;;;;28.57;4.77;;;7.90;99.90;;;;;;5064385;28;20197;-77
2021/05/05 02:54:36;;;;;;;20.43;4.10;;;7.90;99.90;;;;;;5066345;28;20309;-77
2021/05/05 02:57:04;;;;;;;14.43;4.00;;;7.90;99.90;;;;;;5065958;28;20201;-78
2021/05/05 02:59:30;;;;;;;14.60;3.30;;;7.90;99.90;;;;;;5065992;28;20479;-78
2021/05/05 03:01:57;;;;;;;14.67;3.20;;;7.90;99.90;;;;;;5066245;28;20512;-78
2021/05/05 03:04:26;;;;;;;9.50;2.87;;;7.80;99.90;;;;;;5064995;28;20201;-77
2021/05/05 03:06:53;;;;;;;23.77;4.20;;;7.80;99.90;;;;;;5066505;28;20217;-76
2021/05/05 03:09:21;;;;;;;15.00;3.33;;;7.80;99.90;;;;;;5065613;28;20310;-77
2021/05/05 03:11:48;;;;;;;16.90;3.60;;;7.80;99.90;;;;;;5066336;28;20586;-77
2021/05/05 03:14:14;;;;;;;15.07;3.80;;;7.80;99.90;;;;;;5066495;28;20278;-76
2021/05/05 03:16:41;;;;;;;11.70;3.10;;;7.80;99.90;;;;;;5065930;28;20209;-77
2021/05/05 03:19:07;;;;;;;18.30;3.87;;;7.80;99.90;;;;;;5066261;28;20872;-77
2021/05/05 03:21:38;;;;;;;16.07;4.90;;;7.80;99.90;;;;;;5066195;28;20680;-77
2021/05/05 03:24:05;;;;;;;12.30;3.87;;;7.80;99.90;;;;;;5065217;28;20198;-76
2021/05/05 03:26:32;;;;;;;17.07;3.77;;;7.80;99.90;;;;;;5065683;28;20205;-78
2021/05/05 03:28:58;;;;;;;18.07;3.67;;;7.80;99.90;;;;;;5066004;28;20205;-76
2021/05/05 03:31:25;;;;;;;14.00;4.53;;;7.80;99.90;;;;;;5065056;28;20588;-78
2021/05/05 03:33:51;;;;;;;15.47;3.60;;;7.80;99.90;;;;;;5065972;28;20911;-76
2021/05/05 03:36:18;;;;;;;20.63;3.20;;;7.80;99.90;;;;;;5065905;28;20233;-76
2021/05/05 03:38:45;;;;;;;13.07;4.20;;;7.80;99.90;;;;;;5067193;28;20314;-78
2021/05/05 03:41:11;;;;;;;14.27;3.30;;;7.80;99.90;;;;;;5085785;28;20909;-77
2021/05/05 03:43:37;;;;;;;12.80;3.30;;;7.80;99.90;;;;;;5086527;28;20208;-77
2021/05/05 03:46:04;;;;;;;12.70;2.97;;;7.80;99.90;;;;;;5085468;28;20207;-76
2021/05/05 03:48:30;;;;;;;16.00;3.13;;;7.80;99.90;;;;;;5083145;28;20213;-77
2021/05/05 03:50:57;;;;;;;11.23;3.77;;;7.80;99.90;;;;;;5065558;28;20208;-77
2021/05/05 03:53:24;;;;;;;15.77;2.93;;;7.80;99.90;;;;;;5064980;28;20204;-76
2021/05/05 03:55:51;;;;;;;11.13;3.20;;;7.80;99.90;;;;;;5065596;28;20221;-76
2021/05/05 03:58:18;;;;;;;13.37;4.07;;;7.80;99.90;;;;;;5065502;28;20212;-78
2021/05/05 04:00:44;;;;;;;12.47;2.43;;;7.70;99.90;;;;;;5064856;28;20216;-77
2021/05/05 04:03:10;;;;;;;16.43;2.63;;;7.70;99.90;;;;;;5064060;28;20212;-78
2021/05/05 04:05:37;;;;;;;9.90;2.70;;;7.70;99.90;;;;;;5065582;28;20750;-78
2021/05/05 04:08:03;;;;;;;14.17;2.77;;;7.70;99.90;;;;;;5064946;28;20212;-77
2021/05/05 04:10:30;;;;;;;15.80;4.67;;;7.70;99.90;;;;;;5065101;28;20236;-77
2021/05/05 04:12:57;;;;;;;9.80;2.53;;;7.60;99.90;;;;;;5064454;28;20206;-78
2021/05/05 04:15:24;;;;;;;10.47;2.73;;;7.60;99.90;;;;;;5064787;28;20258;-78
2021/05/05 04:17:50;;;;;;;10.47;2.37;;;7.50;99.90;;;;;;5065131;28;20208;-79
2021/05/05 04:20:19;;;;;;;12.47;3.30;;;7.50;99.90;;;;;;5064933;28;20209;-78
2021/05/05 04:22:46;;;;;;;13.90;3.20;;;7.50;99.90;;;;;;5064854;28;20212;-77
2021/05/05 04:25:13;;;;;;;23.27;4.17;;;7.50;99.90;;;;;;5064809;28;20625;-77
2021/05/05 04:27:41;;;;;;;16.70;3.73;;;7.50;99.90;;;;;;5065175;28;20371;-76
2021/05/05 04:30:12;;;;;;;21.83;4.10;;;7.60;99.90;;;;;;5064687;28;20304;-78
2021/05/05 04:32:39;;;;;;;15.30;3.83;;;7.60;99.90;;;;;;5064795;28;20205;-80
2021/05/05 04:35:06;;;;;;;11.93;3.23;;;7.60;99.90;;;;;;5064864;28;20723;-76
2021/05/05 04:37:33;;;;;;;10.10;2.80;;;7.60;99.90;;;;;;5064253;28;20797;-77
2021/05/05 04:40:00;;;;;;;13.43;4.00;;;7.70;99.90;;;;;;5064557;28;20759;-78
2021/05/05 04:42:27;;;;;;;15.43;4.03;;;7.70;99.90;;;;;;5064171;28;20259;-79
2021/05/05 04:44:54;;;;;;;12.27;3.30;;;7.80;99.90;;;;;;5064081;28;20263;-77
2021/05/05 04:47:21;;;;;;;13.23;3.47;;;7.80;99.90;;;;;;5064716;28;20205;-78
2021/05/05 04:49:47;;;;;;;19.40;4.27;;;7.80;99.90;;;;;;5064021;28;20221;-77
2021/05/05 04:52:13;;;;;;;16.73;3.43;;;7.80;99.90;;;;;;5064649;28;20230;-78
2021/05/05 04:54:40;;;;;;;16.77;3.67;;;7.70;99.90;;;;;;5064320;28;20225;-77
2021/05/05 04:57:06;;;;;;;15.40;3.37;;;7.70;99.90;;;;;;5063917;28;20595;-79
2021/05/05 04:59:32;;;;;;;17.93;3.17;;;7.80;99.90;;;;;;5063717;28;20247;-81
2021/05/05 05:01:59;;;;;;;13.43;2.60;;;7.80;99.90;;;;;;5063061;28;20823;-77
2021/05/05 05:04:26;;;;;;;13.60;2.67;;;7.80;99.90;;;;;;5064368;28;20208;-77
2021/05/05 05:06:52;;;;;;;14.53;3.10;;;7.80;99.90;;;;;;5064087;28;20282;-78
2021/05/05 05:09:18;;;;;;;9.83;2.03;;;7.80;99.90;;;;;;5063518;28;20237;-78
2021/05/05 05:11:44;;;;;;;11.60;2.83;;;7.70;99.90;;;;;;5064249;28;20224;-77
2021/05/05 05:14:11;;;;;;;9.80;2.00;;;7.70;99.90;;;;;;5063919;28;20232;-78
2021/05/05 05:16:37;;;;;;;8.03;1.70;;;7.40;99.90;;;;;;5063707;28;20215;-78
2021/05/05 05:19:04;;;;;;;9.20;2.63;;;7.40;99.90;;;;;;5063087;28;20624;-78
2021/05/05 05:21:31;;;;;;;10.53;3.03;;;7.40;99.90;;;;;;5064629;28;20194;-76
2021/05/05 05:23:57;;;;;;;20.63;3.57;;;7.50;99.90;;;;;;5062884;28;20735;-78
2021/05/05 05:26:23;;;;;;;13.63;2.97;;;7.60;99.90;;;;;;5063641;28;20602;-76
2021/05/05 05:28:50;;;;;;;15.77;2.87;;;7.70;99.90;;;;;;5065233;28;20209;-77
2021/05/05 05:31:16;;;;;;;13.00;3.23;;;7.70;99.90;;;;;;5064069;28;20296;-77
2021/05/05 05:33:43;;;;;;;13.33;3.30;;;7.70;99.90;;;;;;5063348;28;20594;-76
2021/05/05 05:36:09;;;;;;;12.83;2.53;;;7.80;99.90;;;;;;5063481;28;20216;-77
2021/05/05 05:38:36;;;;;;;14.17;2.23;;;7.90;99.90;;;;;;5063466;28;20212;-77
2021/05/05 05:41:03;;;;;;;6.67;1.70;;;7.80;99.90;;;;;;5063771;28;20217;-79
2021/05/05 05:43:29;;;;;;;10.23;2.00;;;7.70;99.90;;;;;;5064057;28;20243;-78
2021/05/05 05:45:55;;;;;;;10.10;2.33;;;7.50;99.90;;;;;;5063127;28;20197;-77
2021/05/05 05:48:22;;;;;;;9.10;2.47;;;7.40;99.90;;;;;;5063821;28;20229;-79
2021/05/05 05:50:48;;;;;;;9.20;2.40;;;7.40;99.90;;;;;;5063678;28;20193;-78
2021/05/05 05:53:14;;;;;;;6.03;2.13;;;7.30;99.90;;;;;;5063110;28;20204;-79
2021/05/05 05:55:44;;;;;;;11.77;2.63;;;7.30;99.90;;;;;;5063191;28;20228;-77
2021/05/05 05:58:13;;;;;;;11.60;2.50;;;7.40;99.90;;;;;;5063518;28;20883;-78
2021/05/05 06:00:39;;;;;;;22.40;3.53;;;7.30;99.90;;;;;;5064079;28;20205;-78
2021/05/05 06:03:06;;;;;;;13.77;2.77;;;7.40;99.90;;;;;;5063736;28;20205;-77
2021/05/05 06:05:32;;;;;;;12.77;2.77;;;7.50;99.90;;;;;;5062664;28;20223;-80
2021/05/05 06:07:59;;;;;;;18.47;3.10;;;7.50;99.90;;;;;;5063974;28;20212;-80
2021/05/05 06:10:25;;;;;;;16.90;3.60;;;7.60;99.90;;;;;;5063435;28;20809;-78
2021/05/05 06:12:53;;;;;;;15.63;3.20;;;7.80;99.90;;;;;;5062024;28;20217;-78
2021/05/05 06:15:20;;;;;;;15.67;5.40;;;8.10;99.90;;;;;;5063779;28;20217;-77
2021/05/05 06:17:47;;;;;;;11.53;3.53;;;8.50;99.90;;;;;;5062943;28;20205;-78
2021/05/05 06:20:14;;;;;;;11.60;3.20;;;8.80;99.90;;;;;;5062974;28;20208;-78
2021/05/05 06:22:40;;;;;;;14.43;4.13;;;9.00;99.90;;;;;;5063449;28;20251;-78
2021/05/05 06:25:08;;;;;;;10.47;2.73;;;8.90;99.90;;;;;;5063160;28;20536;-80
2021/05/05 06:27:34;;;;;;;11.03;2.40;;;8.60;99.90;;;;;;5066589;28;20201;-78
2021/05/05 06:30:03;;;;;;;13.83;2.53;;;8.30;99.90;;;;;;5067819;28;20239;-79
2021/05/05 06:32:29;;;;;;;12.43;2.63;;;8.20;99.90;;;;;;5066667;28;20209;-79
2021/05/05 06:34:55;;;;;;;14.47;3.17;;;8.40;99.90;;;;;;5066334;28;20228;-79
2021/05/05 06:37:22;;;;;;;14.33;3.17;;;8.70;99.90;;;;;;5066904;28;20212;-78
2021/05/05 06:39:49;;;;;;;11.87;3.37;;;8.90;99.90;;;;;;5066538;28;20367;-78
2021/05/05 06:42:15;;;;;;;15.73;3.80;;;9.20;99.90;;;;;;5066612;28;20254;-78
2021/05/05 06:44:42;;;;;;;12.20;3.30;;;9.20;99.90;;;;;;5067206;28;20205;-78
2021/05/05 06:47:10;;;;;;;11.43;2.50;;;9.10;99.90;;;;;;5066779;28;20641;-76
2021/05/05 06:49:36;;;;;;;11.97;2.20;;;8.80;99.90;;;;;;5066640;28;20233;-75
2021/05/05 06:52:02;;;;;;;11.63;2.73;;;8.50;99.90;;;;;;5066869;28;20220;-77
2021/05/05 06:54:29;;;;;;;10.70;2.60;;;8.60;99.90;;;;;;5066845;28;20225;-78
2021/05/05 06:56:55;;;;;;;17.10;3.30;;;8.70;99.90;;;;;;5066171;28;20194;-80
2021/05/05 06:59:21;;;;;;;13.50;3.40;;;9.00;99.90;;;;;;5067365;28;20224;-79
2021/05/05 07:01:48;;;;;;;9.47;2.70;;;9.30;99.90;;;;;;5066003;28;20284;-76
2021/05/05 07:04:15;;;;;;;15.83;3.90;;;9.40;99.90;;;;;;5067619;28;20542;-77
2021/05/05 07:06:41;;;;;;;16.33;3.50;;;9.30;99.90;;;;;;5066687;28;20255;-80
2021/05/05 07:09:08;;;;;;;11.37;2.57;;;9.20;99.90;;;;;;5063132;28;20515;-78
2021/05/05 07:11:38;;;;;;;13.70;3.03;;;9.00;99.90;;;;;;5066031;28;20198;-77
2021/05/05 07:14:05;;;;;;;12.27;2.43;;;8.70;99.90;;;;;;5065096;28;20693;-83
2021/05/05 07:16:31;;;;;;;11.67;2.23;;;8.40;99.90;;;;;;5065817;28;20200;-79
2021/05/05 07:18:58;;;;;;;14.53;2.53;;;8.20;99.90;;;;;;5064149;28;20201;-80
2021/05/05 07:21:26;;;;;;;13.60;2.80;;;8.00;99.90;;;;;;5066887;28;20516;-79
2021/05/05 07:23:52;;;;;;;13.90;3.17;;;8.10;99.90;;;;;;5065179;28;20515;-78
2021/05/05 07:26:19;;;;;;;16.63;3.13;;;8.30;99.90;;;;;;5033536;28;20243;-78
2021/05/05 07:28:46;;;;;;;13.43;3.53;;;8.70;99.90;;;;;;5065998;28;20200;-75
2021/05/05 07:31:12;;;;;;;18.93;3.37;;;9.00;99.90;;;;;;5066119;28;20206;-78
2021/05/05 07:33:39;;;;;;;21.00;3.93;;;9.40;99.90;;;;;;5066524;28;20946;-79
2021/05/05 07:36:10;;;;;;;14.47;3.47;;;9.40;99.90;;;;;;5067172;28;20200;-78
2021/05/05 07:38:51;;;;;;;14.00;3.00;;;9.40;99.90;;;;;;5066455;28;20201;-81
2021/05/05 07:44:47;;;;;;;16.47;3.93;;;9.10;99.90;;;;;;4990962;28;20262;-79
2021/05/05 07:47:16;;;;;;;13.70;3.83;;;9.00;99.90;;;;;;5068229;28;20719;-77
2021/05/05 07:49:46;;;;;;;13.40;3.10;;;9.00;99.90;;;;;;5067811;28;20224;-78
2021/05/05 07:52:13;;;;;;;19.93;3.80;;;9.00;99.90;;;;;;5067065;28;20204;-78
2021/05/05 07:54:40;;;;;;;18.67;4.73;;;9.30;99.90;;;;;;5066300;28;20232;-79
2021/05/05 07:57:07;;;;;;;17.10;4.20;;;9.60;99.90;;;;;;5065756;28;20201;-79
2021/05/05 07:59:33;;;;;;;20.00;4.57;;;10.00;99.90;;;;;;5065336;28;20223;-79
2021/05/05 08:02:00;;;;;;;15.00;3.43;;;10.00;99.90;;;;;;5065231;28;20262;-78
2021/05/05 08:04:26;;;;;;;16.07;4.37;;;9.80;99.90;;;;;;5066005;28;20201;-78
2021/05/05 08:06:52;;;;;;;9.40;2.60;;;9.90;99.90;;;;;;5065464;28;20628;-81
2021/05/05 08:09:21;;;;;;;11.20;3.73;;;10.20;99.90;;;;;;5066095;28;20241;-79
2021/05/05 08:11:49;;;;;;;11.43;2.67;;;10.50;99.90;;;;;;5065521;28;20558;-78
2021/05/05 08:14:15;;;;;;;15.67;3.70;;;10.60;99.90;;;;;;5066102;28;20236;-77
2021/05/05 08:16:41;;;;;;;17.67;3.63;;;10.50;99.90;;;;;;5065929;28;20491;-78
2021/05/05 08:19:08;;;;;;;23.90;4.47;;;10.60;99.90;;;;;;5065698;28;20502;-80
2021/05/05 08:21:34;;;;;;;18.17;3.47;;;10.90;99.90;;;;;;5065352;28;20342;-79
2021/05/05 08:24:00;;;;;;;23.67;4.20;;;11.10;99.90;;;;;;5064819;28;20597;-76
2021/05/05 08:26:27;;;;;;;16.37;4.00;;;11.30;99.90;;;;;;5063853;28;20216;-77
2021/05/05 08:28:55;;;;;;;15.07;3.30;;;11.20;99.90;;;;;;5064729;28;20211;-79
2021/05/05 08:31:21;;;;;;;18.30;3.90;;;11.10;99.90;;;;;;5064763;28;20560;-79
2021/05/05 08:33:47;;;;;;;13.77;3.87;;;10.90;99.90;;;;;;5064577;28;20201;-78
2021/05/05 08:36:14;;;;;;;19.33;4.77;;;10.80;99.90;;;;;;5065303;28;20197;-77
2021/05/05 08:38:40;;;;;;;17.57;3.47;;;10.60;99.90;;;;;;5064562;28;20193;-76
2021/05/05 08:41:10;;;;;;;19.03;3.40;;;10.60;99.90;;;;;;5064452;28;20232;-78
2021/05/05 08:43:36;;;;;;;18.33;4.20;;;10.60;99.90;;;;;;5064732;28;20209;-78
2021/05/05 08:46:06;;;;;;;16.23;3.60;;;10.70;99.90;;;;;;5064423;28;20533;-78
2021/05/05 08:48:33;;;;;;;15.00;3.20;;;11.00;99.90;;;;;;5063854;28;20194;-78
2021/05/05 08:51:00;;;;;;;15.30;3.47;;;11.20;99.90;;;;;;5063785;28;20518;-76
2021/05/05 08:53:26;;;;;;;17.53;4.40;;;11.10;99.90;;;;;;5064155;28;20266;-77
2021/05/05 08:55:52;;;;;;;15.73;3.40;;;10.80;99.90;;;;;;5063449;28;20225;-78
2021/05/05 08:58:19;;;;;;;14.40;3.27;;;11.00;99.90;;;;;;5064716;28;20254;-79
2021/05/05 09:00:45;;;;;;;22.83;3.50;;;11.10;99.90;;;;;;5064749;28;20201;-78
2021/05/05 09:03:12;;;;;;;14.67;3.60;;;11.50;99.90;;;;;;5064012;28;20201;-78
2021/05/05 09:05:51;;;;;;;16.57;3.53;;;11.60;99.90;;;;;;5064103;28;20197;-76
2021/05/05 09:08:18;;;;;;;16.47;3.93;;;11.50;99.90;;;;;;5063788;28;20212;-76
2021/05/05 09:11:02;;;;;;;30.40;5.47;;;11.20;99.90;;;;;;5064031;28;20236;-77
2021/05/05 09:13:47;;;;;;;15.10;3.53;;;11.00;99.90;;;;;;5062366;28;20201;-77
2021/05/05 09:16:15;;;;;;;16.10;3.33;;;10.90;99.90;;;;;;5063664;28;20205;-77
2021/05/05 09:18:53;;;;;;;17.17;3.90;;;11.10;99.90;;;;;;5063456;28;20233;-77
2021/05/05 09:21:28;;;;;;;18.07;3.67;;;11.00;99.90;;;;;;5081882;28;20209;-78
2021/05/05 09:24:17;;;;;;;16.77;3.23;;;11.20;99.90;;;;;;5075875;28;20208;-79
2021/05/05 09:26:44;;;;;;;18.40;3.60;;;11.20;99.90;;;;;;5064277;28;20215;-77
2021/05/05 09:29:11;;;;;;;17.57;3.67;;;11.10;99.90;;;;;;5064114;28;20209;-77
2021/05/05 09:31:39;;;;;;;12.10;3.90;;;11.20;99.90;;;;;;5081831;28;20209;-78
2021/05/05 09:34:09;;;;;;;14.70;3.77;;;11.40;99.90;;;;;;5063294;28;20266;-78
2021/05/05 09:36:36;;;;;;;16.43;4.37;;;11.30;99.90;;;;;;5062364;28;20209;-77
2021/05/05 09:39:04;;;;;;;12.70;3.63;;;11.10;99.90;;;;;;5063983;28;20228;-77
2021/05/05 09:41:32;;;;;;;13.40;3.40;;;11.10;99.90;;;;;;5063713;28;20569;-78
2021/05/05 09:44:01;;;;;;;19.43;4.30;;;11.40;99.90;;;;;;5073853;28;20246;-77
2021/05/05 09:49:34;;;;;;;15.57;3.73;;;11.70;99.90;;;;;;5060067;28;20217;-77
2021/05/05 09:52:02;;;;;;;14.87;3.80;;;11.60;99.90;;;;;;5061962;28;20208;-76
2021/05/05 09:54:32;;;;;;;17.43;4.93;;;11.60;99.90;;;;;;5062609;28;20229;-76
2021/05/05 09:57:17;;;;;;;13.70;3.47;;;11.50;99.90;;;;;;5063146;28;20486;-77
2021/05/05 10:00:07;;;;;;;18.93;4.17;;;11.30;99.90;;;;;;5062784;28;20213;-78
2021/05/05 10:02:44;;;;;;;13.53;2.87;;;11.40;99.90;;;;;;5062437;28;20223;-77
2021/05/05 10:05:13;;;;;;;15.17;3.70;;;11.40;99.90;;;;;;5062480;28;20321;-81
2021/05/05 10:07:51;;;;;;;17.37;3.63;;;11.60;99.90;;;;;;5062317;28;20213;-79
2021/05/05 10:10:18;;;;;;;11.67;3.77;;;11.90;99.90;;;;;;5063164;28;20652;-78
2021/05/05 10:12:45;;;;;;;15.97;5.10;;;12.00;99.90;;;;;;5062003;28;20213;-77
2021/05/05 10:15:13;;;;;;;14.20;3.67;;;12.20;99.90;;;;;;5062665;28;20290;-79
2021/05/05 10:17:40;;;;;;;18.10;3.87;;;12.10;99.90;;;;;;5062413;28;20221;-78
2021/05/05 10:20:07;;;;;;;18.77;4.93;;;12.20;99.90;;;;;;5062671;28;20239;-78
2021/05/05 10:22:36;;;;;;;23.80;4.17;;;11.90;99.90;;;;;;5061884;28;20362;-77
2021/05/05 10:25:03;;;;;;;19.63;4.43;;;11.80;99.90;;;;;;5062458;28;20205;-78
2021/05/05 10:27:29;;;;;;;20.20;4.27;;;11.80;99.90;;;;;;5061916;28;20217;-77
2021/05/05 10:29:56;;;;;;;20.23;4.23;;;12.00;99.90;;;;;;5072232;28;20208;-78
2021/05/05 10:32:29;;;;;;;16.73;4.30;;;12.00;99.90;;;;;;5082652;28;20208;-78
2021/05/05 10:34:57;;;;;;;16.63;4.30;;;12.10;99.90;;;;;;5064329;28;20582;-78
2021/05/05 10:37:41;;;;;;;17.43;4.27;;;12.20;99.90;;;;;;5062362;28;20209;-80
2021/05/05 10:40:25;;;;;;;20.43;4.27;;;12.20;99.90;;;;;;5062097;28;20208;-80
2021/05/05 10:42:54;;;;;;;19.63;4.00;;;12.10;99.90;;;;;;5062998;28;20205;-79
2021/05/05 10:45:29;;;;;;;16.93;4.33;;;12.20;99.90;;;;;;5062901;28;20216;-77
2021/05/05 10:48:13;;;;;;;19.13;4.20;;;12.40;99.90;;;;;;5063053;28;20215;-79
2021/05/05 10:50:55;;;;;;;19.10;4.33;;;12.70;99.90;;;;;;5062935;28;20217;-79
2021/05/05 10:53:23;;;;;;;18.60;4.60;;;12.60;99.90;;;;;;5062058;28;20197;-80
2021/05/05 10:55:53;;;;;;;20.30;4.50;;;12.90;99.90;;;;;;5061940;28;20706;-79
2021/05/05 10:58:23;;;;;;;20.60;5.07;;;13.00;99.90;;;;;;5063413;28;20208;-77
2021/05/05 11:00:53;;;;;;;12.90;4.23;;;13.20;99.90;;;;;;5063908;28;20216;-79
2021/05/05 11:04:00;;;;;;;15.27;4.17;;;13.20;99.90;;;;;;5064815;28;20237;-78
2021/05/05 11:06:47;;;;;;;17.10;5.47;;;13.10;99.90;;;;;;5063766;28;20414;-79
2021/05/05 11:09:54;;;;;;;15.10;3.77;;;13.10;99.90;;;;;;5063284;28;20621;-81
2021/05/05 11:12:45;;;;;;;19.47;4.63;;;13.10;99.90;;;;;;5063994;28;20196;-79
2021/05/05 11:15:13;;;;;;;21.57;5.17;;;13.40;99.90;;;;;;5066617;28;20655;-77
2021/05/05 11:17:40;;;;;;;12.47;3.53;;;13.30;99.90;;;;;;5067212;28;20197;-80
2021/05/05 11:20:08;;;;;;;9.53;1.97;;;12.80;99.90;;;;;;5066812;28;20201;-78
2021/05/05 11:22:48;;;;;;;14.07;2.63;;;12.80;99.90;;;;;;5066675;28;20255;-79
2021/05/05 11:25:26;;;;;;;8.03;2.50;;;12.70;99.90;;;;;;5066155;28;20619;-78
2021/05/05 11:27:56;;;;;;;9.50;2.73;;;12.80;99.90;;;;;;5048628;28;20201;-76
2021/05/05 11:30:40;;;;;;;12.67;2.70;;;12.60;99.90;;;;;;5066023;28;20213;-75
2021/05/05 11:33:08;;;;;;;11.87;3.67;;;12.50;99.90;;;;;;5066546;28;20204;-79
2021/05/05 11:35:35;;;;;;;15.27;3.23;;;12.50;99.90;;;;;;5074112;28;20239;-78
2021/05/05 11:38:07;;;;;;;13.07;2.90;;;12.50;99.90;;;;;;5085671;28;20205;-78
2021/05/05 11:40:33;;;;;;;11.67;2.93;;;12.20;99.90;;;;;;5086743;28;20224;-77
2021/05/05 11:43:00;;;;;;;13.60;3.33;;;12.20;99.90;;;;;;5078315;28;20194;-78
2021/05/05 11:45:27;;;;;;;14.93;3.97;;;12.20;99.90;;;;;;5066334;28;20193;-79
2021/05/05 11:47:53;;;;;;;14.07;3.03;;;12.40;99.90;;;;;;5066465;28;20212;-80
2021/05/05 11:50:21;;;;;;;12.93;2.90;;;12.40;99.90;;;;;;5065986;28;20209;-76
2021/05/05 11:52:48;;;;;;;18.03;3.87;;;12.50;99.90;;;;;;5065331;28;20205;-78
2021/05/05 11:55:21;;;;;;;14.93;3.67;;;12.60;99.90;;;;;;5065226;28;20256;-77
2021/05/05 11:57:49;;;;;;;15.90;3.23;;;12.60;99.90;;;;;;5065845;28;20519;-77
2021/05/05 12:00:19;;;;;;;12.73;4.17;;;12.70;99.90;;;;;;5066064;28;20223;-81
2021/05/05 12:02:47;;;;;;;12.90;3.47;;;12.70;99.90;;;;;;5066907;28;20846;-79
2021/05/05 12:05:28;;;;;;;11.73;3.03;;;12.40;99.90;;;;;;5064951;28;20202;-80
2021/05/05 12:08:03;;;;;;;12.57;3.13;;;12.40;99.90;;;;;;5066319;28;20215;-81
2021/05/05 12:10:34;;;;;;;14.20;2.93;;;12.60;99.90;;;;;;5066193;28;20240;-81
2021/05/05 12:13:04;;;;;;;9.27;2.47;;;12.70;99.90;;;;;;5066396;28;20212;-82
2021/05/05 12:15:32;;;;;;;13.77;3.33;;;12.70;99.90;;;;;;5066176;28;20232;-82
2021/05/05 12:18:04;;;;;;;15.60;3.87;;;12.70;99.90;;;;;;5066427;28;20603;-78
2021/05/05 12:20:31;;;;;;;12.57;2.60;;;12.80;99.90;;;;;;5065930;28;20205;-78
2021/05/05 12:22:58;;;;;;;12.10;2.90;;;12.80;99.90;;;;;;5067079;28;20232;-80
2021/05/05 12:25:27;;;;;;;16.43;4.53;;;12.50;99.90;;;;;;5084581;28;20644;-79
2021/05/05 12:27:59;;;;;;;16.13;3.70;;;12.20;99.90;;;;;;5085901;28;20209;-80
2021/05/05 12:30:43;;;;;;;17.70;4.67;;;11.90;99.90;;;;;;5085956;28;20196;-78
2021/05/05 12:33:09;;;;;;;13.27;3.00;;;11.70;99.90;;;;;;5064957;28;20246;-78
2021/05/05 12:35:37;;;;;;;15.30;3.27;;;11.40;99.90;;;;;;5065374;28;20217;-77
2021/05/05 12:38:10;;;;;;;20.20;3.93;;;11.10;99.90;;;;;;5064943;28;20209;-77
2021/05/05 12:40:36;;;;;;;19.10;4.07;;;11.10;99.90;;;;;;5072635;28;20251;-78
2021/05/05 12:43:23;;;;;;;14.13;3.93;;;11.30;99.90;;;;;;5086449;28;20203;-79
2021/05/05 12:45:52;;;;;;;20.63;4.73;;;11.60;99.90;;;;;;5066467;28;20270;-80
2021/05/05 12:48:28;;;;;;;25.63;4.53;;;11.90;99.90;;;;;;5071299;22;20252;-84
2021/05/05 12:51:05;;;;;;;18.90;4.23;;;12.20;99.90;;;;;;5065130;28;20277;-80
2021/05/05 12:53:54;;;;;;;16.07;3.70;;;12.40;99.90;;;;;;5071888;22;20957;-81
2021/05/05 12:56:36;;;;;;;13.60;3.50;;;12.40;99.90;;;;;;5056802;28;20605;-79